sensor_id;sensor_type;location;lat;lon;timestamp;temperature;humidity
65078;DHT22;51672;51.230;-2.322;2022-07-29T00:00:27;15.40;74.50
65078;DHT22;51672;51.230;-2.322;2022-07-29T00:04:09;15.30;74.50
65078;DHT22;51672;51.230;-2.322;2022-07-29T00:07:51;15.30;74.30
65078;DHT22;51672;51.230;-2.322;2022-07-29T00:11:33;15.20;73.90
65078;DHT22;51672;51.230;-2.322;2022-07-29T00:15:15;15.20;76.00
65078;DHT22;51672;51.230;-2.322;2022-07-29T00:18:57;15.10;76.70
65078;DHT22;51672;51.230;-2.322;2022-07-29T00:22:43;15.00;76.50
65078;DHT22;51672;51.230;-2.322;2022-07-29T00:26:25;14.90;76.80
65078;DHT22;51672;51.230;-2.322;2022-07-29T00:30:09;14.80;76.90
65078;DHT22;51672;51.230;-2.322;2022-07-29T00:33:51;14.70;78.10
65078;DHT22;51672;51.230;-2.322;2022-07-29T00:37:33;14.60;78.70
65078;DHT22;51672;51.230;-2.322;2022-07-29T00:41:16;14.50;79.10
65078;DHT22;51672;51.230;-2.322;2022-07-29T00:44:58;14.40;79.60
65078;DHT22;51672;51.230;-2.322;2022-07-29T00:48:40;14.30;80.10
65078;DHT22;51672;51.230;-2.322;2022-07-29T00:52:22;14.20;80.60
65078;DHT22;51672;51.230;-2.322;2022-07-29T00:56:04;14.10;79.50
65078;DHT22;51672;51.230;-2.322;2022-07-29T00:59:46;14.10;79.20
65078;DHT22;51672;51.230;-2.322;2022-07-29T01:03:28;14.00;81.50
65078;DHT22;51672;51.230;-2.322;2022-07-29T01:07:10;13.90;82.20
65078;DHT22;51672;51.230;-2.322;2022-07-29T01:10:53;13.80;83.10
65078;DHT22;51672;51.230;-2.322;2022-07-29T01:14:37;13.80;83.70
65078;DHT22;51672;51.230;-2.322;2022-07-29T01:18:32;13.80;84.30
65078;DHT22;51672;51.230;-2.322;2022-07-29T01:22:25;13.80;83.60
65078;DHT22;51672;51.230;-2.322;2022-07-29T01:30:02;13.80;85.40
65078;DHT22;51672;51.230;-2.322;2022-07-29T01:33:51;13.70;84.50
65078;DHT22;51672;51.230;-2.322;2022-07-29T01:37:45;13.70;84.60
65078;DHT22;51672;51.230;-2.322;2022-07-29T01:41:31;13.70;84.70
65078;DHT22;51672;51.230;-2.322;2022-07-29T01:45:23;13.70;87.10
65078;DHT22;51672;51.230;-2.322;2022-07-29T01:49:10;13.70;87.10
65078;DHT22;51672;51.230;-2.322;2022-07-29T01:52:56;13.60;87.60
65078;DHT22;51672;51.230;-2.322;2022-07-29T01:56:39;13.50;89.00
65078;DHT22;51672;51.230;-2.322;2022-07-29T02:00:23;13.50;89.90
65078;DHT22;51672;51.230;-2.322;2022-07-29T02:04:06;13.50;90.00
65078;DHT22;51672;51.230;-2.322;2022-07-29T02:07:50;13.40;88.90
65078;DHT22;51672;51.230;-2.322;2022-07-29T02:11:35;13.40;89.00
65078;DHT22;51672;51.230;-2.322;2022-07-29T02:15:18;13.40;89.90
65078;DHT22;51672;51.230;-2.322;2022-07-29T02:19:02;13.40;90.10
65078;DHT22;51672;51.230;-2.322;2022-07-29T02:22:45;13.30;90.10
65078;DHT22;51672;51.230;-2.322;2022-07-29T02:26:29;13.20;90.20
65078;DHT22;51672;51.230;-2.322;2022-07-29T02:30:12;13.20;90.90
65078;DHT22;51672;51.230;-2.322;2022-07-29T02:33:55;13.20;91.10
65078;DHT22;51672;51.230;-2.322;2022-07-29T02:37:38;13.30;90.60
65078;DHT22;51672;51.230;-2.322;2022-07-29T02:41:25;13.30;91.30
65078;DHT22;51672;51.230;-2.322;2022-07-29T02:45:11;13.40;91.10
65078;DHT22;51672;51.230;-2.322;2022-07-29T02:49:13;13.40;90.70
65078;DHT22;51672;51.230;-2.322;2022-07-29T02:53:00;13.50;90.90
65078;DHT22;51672;51.230;-2.322;2022-07-29T02:56:45;13.50;90.80
65078;DHT22;51672;51.230;-2.322;2022-07-29T03:00:29;13.50;91.00
65078;DHT22;51672;51.230;-2.322;2022-07-29T03:04:12;13.60;91.10
65078;DHT22;51672;51.230;-2.322;2022-07-29T03:08:04;13.50;91.30
65078;DHT22;51672;51.230;-2.322;2022-07-29T03:11:49;13.50;90.90
65078;DHT22;51672;51.230;-2.322;2022-07-29T03:15:32;13.50;90.90
65078;DHT22;51672;51.230;-2.322;2022-07-29T03:19:14;13.50;91.10
65078;DHT22;51672;51.230;-2.322;2022-07-29T03:22:56;13.50;91.30
65078;DHT22;51672;51.230;-2.322;2022-07-29T03:26:38;13.50;91.30
65078;DHT22;51672;51.230;-2.322;2022-07-29T03:30:20;13.50;91.10
65078;DHT22;51672;51.230;-2.322;2022-07-29T03:34:03;13.40;91.70
65078;DHT22;51672;51.230;-2.322;2022-07-29T03:37:46;13.40;91.60
65078;DHT22;51672;51.230;-2.322;2022-07-29T03:41:28;13.40;91.80
65078;DHT22;51672;51.230;-2.322;2022-07-29T03:45:16;13.40;91.20
65078;DHT22;51672;51.230;-2.322;2022-07-29T03:49:01;13.30;91.60
65078;DHT22;51672;51.230;-2.322;2022-07-29T03:52:45;13.30;91.40
65078;DHT22;51672;51.230;-2.322;2022-07-29T03:56:29;13.20;91.60
65078;DHT22;51672;51.230;-2.322;2022-07-29T04:00:11;13.20;92.40
65078;DHT22;51672;51.230;-2.322;2022-07-29T04:03:54;13.20;92.40
65078;DHT22;51672;51.230;-2.322;2022-07-29T04:07:36;13.20;92.40
65078;DHT22;51672;51.230;-2.322;2022-07-29T04:11:18;13.20;92.70
65078;DHT22;51672;51.230;-2.322;2022-07-29T04:15:02;13.20;92.90
65078;DHT22;51672;51.230;-2.322;2022-07-29T04:18:44;13.20;92.90
65078;DHT22;51672;51.230;-2.322;2022-07-29T04:22:26;13.20;92.90
65078;DHT22;51672;51.230;-2.322;2022-07-29T04:26:09;13.20;93.10
65078;DHT22;51672;51.230;-2.322;2022-07-29T04:29:52;13.20;93.10
65078;DHT22;51672;51.230;-2.322;2022-07-29T04:33:38;13.20;92.80
65078;DHT22;51672;51.230;-2.322;2022-07-29T04:37:20;13.20;92.90
65078;DHT22;51672;51.230;-2.322;2022-07-29T04:41:02;13.20;92.80
65078;DHT22;51672;51.230;-2.322;2022-07-29T04:44:43;13.20;92.80
65078;DHT22;51672;51.230;-2.322;2022-07-29T04:48:26;13.20;92.20
65078;DHT22;51672;51.230;-2.322;2022-07-29T04:52:09;13.20;93.20
65078;DHT22;51672;51.230;-2.322;2022-07-29T04:55:51;13.30;93.20
65078;DHT22;51672;51.230;-2.322;2022-07-29T04:59:33;13.30;93.10
65078;DHT22;51672;51.230;-2.322;2022-07-29T05:03:15;13.30;92.50
65078;DHT22;51672;51.230;-2.322;2022-07-29T05:06:57;13.40;92.40
65078;DHT22;51672;51.230;-2.322;2022-07-29T05:10:39;13.40;92.80
65078;DHT22;51672;51.230;-2.322;2022-07-29T05:14:21;13.40;92.10
65078;DHT22;51672;51.230;-2.322;2022-07-29T05:18:03;13.50;92.50
65078;DHT22;51672;51.230;-2.322;2022-07-29T05:21:45;13.50;92.30
65078;DHT22;51672;51.230;-2.322;2022-07-29T05:25:28;13.50;92.10
65078;DHT22;51672;51.230;-2.322;2022-07-29T05:29:25;13.50;91.80
65078;DHT22;51672;51.230;-2.322;2022-07-29T05:33:23;13.50;92.30
65078;DHT22;51672;51.230;-2.322;2022-07-29T05:37:19;13.60;92.80
65078;DHT22;51672;51.230;-2.322;2022-07-29T05:41:01;13.80;92.80
65078;DHT22;51672;51.230;-2.322;2022-07-29T05:44:44;14.00;92.10
65078;DHT22;51672;51.230;-2.322;2022-07-29T05:48:25;14.10;91.40
65078;DHT22;51672;51.230;-2.322;2022-07-29T05:52:08;14.40;91.80
65078;DHT22;51672;51.230;-2.322;2022-07-29T05:55:50;14.60;91.50
65078;DHT22;51672;51.230;-2.322;2022-07-29T05:59:37;14.70;91.40
65078;DHT22;51672;51.230;-2.322;2022-07-29T06:03:20;14.80;91.20
65078;DHT22;51672;51.230;-2.322;2022-07-29T06:07:02;15.00;91.20
65078;DHT22;51672;51.230;-2.322;2022-07-29T06:10:45;15.40;91.00
65078;DHT22;51672;51.230;-2.322;2022-07-29T06:14:34;16.00;90.40
65078;DHT22;51672;51.230;-2.322;2022-07-29T06:18:17;16.50;88.70
65078;DHT22;51672;51.230;-2.322;2022-07-29T06:22:00;16.90;87.60
65078;DHT22;51672;51.230;-2.322;2022-07-29T06:25:50;17.20;86.00
65078;DHT22;51672;51.230;-2.322;2022-07-29T06:29:33;17.70;84.80
65078;DHT22;51672;51.230;-2.322;2022-07-29T06:33:19;18.20;82.60
65078;DHT22;51672;51.230;-2.322;2022-07-29T06:37:08;18.70;81.40
65078;DHT22;51672;51.230;-2.322;2022-07-29T06:40:56;19.20;79.60
65078;DHT22;51672;51.230;-2.322;2022-07-29T06:44:41;19.90;76.10
65078;DHT22;51672;51.230;-2.322;2022-07-29T06:48:39;20.60;75.20
65078;DHT22;51672;51.230;-2.322;2022-07-29T06:52:23;21.30;73.00
65078;DHT22;51672;51.230;-2.322;2022-07-29T06:56:15;22.20;70.60
65078;DHT22;51672;51.230;-2.322;2022-07-29T06:59:58;22.90;68.50
65078;DHT22;51672;51.230;-2.322;2022-07-29T07:03:40;23.40;65.50
65078;DHT22;51672;51.230;-2.322;2022-07-29T07:11:27;24.50;62.00
65078;DHT22;51672;51.230;-2.322;2022-07-29T07:15:24;25.10;59.40
65078;DHT22;51672;51.230;-2.322;2022-07-29T07:19:21;25.60;60.00
65078;DHT22;51672;51.230;-2.322;2022-07-29T07:23:35;26.30;56.40
65078;DHT22;51672;51.230;-2.322;2022-07-29T07:27:18;26.70;60.10
65078;DHT22;51672;51.230;-2.322;2022-07-29T07:31:12;27.30;53.80
65078;DHT22;51672;51.230;-2.322;2022-07-29T07:34:54;27.90;54.50
65078;DHT22;51672;51.230;-2.322;2022-07-29T07:38:37;28.40;51.00
65078;DHT22;51672;51.230;-2.322;2022-07-29T07:42:26;28.90;50.40
65078;DHT22;51672;51.230;-2.322;2022-07-29T07:46:09;29.40;50.80
65078;DHT22;51672;51.230;-2.322;2022-07-29T07:49:52;30.20;47.20
65078;DHT22;51672;51.230;-2.322;2022-07-29T07:53:41;30.90;46.30
65078;DHT22;51672;51.230;-2.322;2022-07-29T07:57:24;31.90;46.70
65078;DHT22;51672;51.230;-2.322;2022-07-29T08:01:07;33.00;43.40
65078;DHT22;51672;51.230;-2.322;2022-07-29T08:08:39;35.00;40.60
65078;DHT22;51672;51.230;-2.322;2022-07-29T08:12:22;35.80;38.80
65078;DHT22;51672;51.230;-2.322;2022-07-29T08:16:14;36.70;38.10
65078;DHT22;51672;51.230;-2.322;2022-07-29T08:19:58;37.60;40.10
65078;DHT22;51672;51.230;-2.322;2022-07-29T08:23:41;37.90;36.20
65078;DHT22;51672;51.230;-2.322;2022-07-29T08:27:49;38.00;35.60
65078;DHT22;51672;51.230;-2.322;2022-07-29T08:31:32;39.00;34.50
65078;DHT22;51672;51.230;-2.322;2022-07-29T08:35:23;39.60;34.20
65078;DHT22;51672;51.230;-2.322;2022-07-29T08:39:05;40.50;35.90
65078;DHT22;51672;51.230;-2.322;2022-07-29T08:42:48;41.20;33.00
65078;DHT22;51672;51.230;-2.322;2022-07-29T08:46:38;41.90;31.40
65078;DHT22;51672;51.230;-2.322;2022-07-29T08:50:21;42.30;33.10
65078;DHT22;51672;51.230;-2.322;2022-07-29T08:54:03;43.00;30.50
65078;DHT22;51672;51.230;-2.322;2022-07-29T08:57:52;43.50;30.00
65078;DHT22;51672;51.230;-2.322;2022-07-29T09:06:14;45.00;33.80
65078;DHT22;51672;51.230;-2.322;2022-07-29T09:13:59;46.20;31.60
65078;DHT22;51672;51.230;-2.322;2022-07-29T09:17:45;46.20;28.40
65078;DHT22;51672;51.230;-2.322;2022-07-29T09:25:34;44.90;28.70
65078;DHT22;51672;51.230;-2.322;2022-07-29T09:29:36;44.50;30.90
65078;DHT22;51672;51.230;-2.322;2022-07-29T09:33:23;43.40;30.80
65078;DHT22;51672;51.230;-2.322;2022-07-29T09:37:28;42.30;29.70
65078;DHT22;51672;51.230;-2.322;2022-07-29T09:41:11;42.20;31.90
65078;DHT22;51672;51.230;-2.322;2022-07-29T09:44:53;42.50;29.10
65078;DHT22;51672;51.230;-2.322;2022-07-29T09:52:28;42.40;28.40
65078;DHT22;51672;51.230;-2.322;2022-07-29T09:56:11;42.40;28.00
65078;DHT22;51672;51.230;-2.322;2022-07-29T10:00:17;41.80;27.90
65078;DHT22;51672;51.230;-2.322;2022-07-29T10:04:00;41.80;29.10
65078;DHT22;51672;51.230;-2.322;2022-07-29T10:08:14;42.50;27.90
65078;DHT22;51672;51.230;-2.322;2022-07-29T10:12:23;43.50;30.80
65078;DHT22;51672;51.230;-2.322;2022-07-29T10:16:06;44.60;29.00
65078;DHT22;51672;51.230;-2.322;2022-07-29T10:19:49;45.00;26.10
65078;DHT22;51672;51.230;-2.322;2022-07-29T10:23:41;44.50;26.40
65078;DHT22;51672;51.230;-2.322;2022-07-29T10:27:28;44.20;27.70
65078;DHT22;51672;51.230;-2.322;2022-07-29T10:31:36;43.80;26.90
65078;DHT22;51672;51.230;-2.322;2022-07-29T10:40:11;43.60;29.20
65078;DHT22;51672;51.230;-2.322;2022-07-29T10:49:09;44.00;27.70
65078;DHT22;51672;51.230;-2.322;2022-07-29T10:53:16;44.50;26.50
65078;DHT22;51672;51.230;-2.322;2022-07-29T11:01:28;44.10;28.10
65078;DHT22;51672;51.230;-2.322;2022-07-29T11:05:56;43.10;28.50
65078;DHT22;51672;51.230;-2.322;2022-07-29T11:18:23;37.40;29.90
65078;DHT22;51672;51.230;-2.322;2022-07-29T11:22:42;35.80;30.70
65078;DHT22;51672;51.230;-2.322;2022-07-29T11:26:43;35.10;32.50
65078;DHT22;51672;51.230;-2.322;2022-07-29T11:30:51;34.80;32.30
65078;DHT22;51672;51.230;-2.322;2022-07-29T11:54:24;32.80;33.90
65078;DHT22;51672;51.230;-2.322;2022-07-29T12:02:11;31.30;33.90
65078;DHT22;51672;51.230;-2.322;2022-07-29T12:06:14;31.00;34.50
65078;DHT22;51672;51.230;-2.322;2022-07-29T12:10:40;30.80;34.90
65078;DHT22;51672;51.230;-2.322;2022-07-29T12:14:33;30.40;34.70
65078;DHT22;51672;51.230;-2.322;2022-07-29T12:18:33;30.30;35.00
65078;DHT22;51672;51.230;-2.322;2022-07-29T12:22:27;29.80;35.10
65078;DHT22;51672;51.230;-2.322;2022-07-29T12:26:26;29.30;35.30
65078;DHT22;51672;51.230;-2.322;2022-07-29T12:30:19;28.70;35.80
65078;DHT22;51672;51.230;-2.322;2022-07-29T12:34:22;28.20;36.10
65078;DHT22;51672;51.230;-2.322;2022-07-29T12:38:14;27.80;36.80
65078;DHT22;51672;51.230;-2.322;2022-07-29T12:42:12;27.60;37.10
65078;DHT22;51672;51.230;-2.322;2022-07-29T12:46:14;27.60;36.60
65078;DHT22;51672;51.230;-2.322;2022-07-29T12:50:10;27.50;37.10
65078;DHT22;51672;51.230;-2.322;2022-07-29T12:54:10;27.40;37.20
65078;DHT22;51672;51.230;-2.322;2022-07-29T13:03:05;27.00;37.70
65078;DHT22;51672;51.230;-2.322;2022-07-29T13:07:01;27.00;38.30
65078;DHT22;51672;51.230;-2.322;2022-07-29T13:10:52;27.10;38.20
65078;DHT22;51672;51.230;-2.322;2022-07-29T13:14:55;27.00;37.80
65078;DHT22;51672;51.230;-2.322;2022-07-29T13:18:47;26.90;38.10
65078;DHT22;51672;51.230;-2.322;2022-07-29T13:22:49;26.90;37.90
65078;DHT22;51672;51.230;-2.322;2022-07-29T13:26:40;26.80;37.40
65078;DHT22;51672;51.230;-2.322;2022-07-29T13:30:40;26.80;37.20
65078;DHT22;51672;51.230;-2.322;2022-07-29T13:34:33;26.90;37.90
65078;DHT22;51672;51.230;-2.322;2022-07-29T13:38:32;26.90;37.80
65078;DHT22;51672;51.230;-2.322;2022-07-29T13:42:26;26.80;38.70
65078;DHT22;51672;51.230;-2.322;2022-07-29T13:46:24;26.80;38.70
65078;DHT22;51672;51.230;-2.322;2022-07-29T13:50:19;26.80;38.20
65078;DHT22;51672;51.230;-2.322;2022-07-29T13:54:18;26.80;38.40
65078;DHT22;51672;51.230;-2.322;2022-07-29T14:08:19;26.60;38.30
65078;DHT22;51672;51.230;-2.322;2022-07-29T14:12:21;26.40;38.80
65078;DHT22;51672;51.230;-2.322;2022-07-29T14:16:13;26.40;39.90
65078;DHT22;51672;51.230;-2.322;2022-07-29T14:20:12;26.40;39.80
65078;DHT22;51672;51.230;-2.322;2022-07-29T14:28:35;26.50;39.30
65078;DHT22;51672;51.230;-2.322;2022-07-29T14:37:38;26.70;39.00
65078;DHT22;51672;51.230;-2.322;2022-07-29T14:41:36;26.70;39.50
65078;DHT22;51672;51.230;-2.322;2022-07-29T14:55:09;26.80;39.10
65078;DHT22;51672;51.230;-2.322;2022-07-29T14:59:37;26.80;40.50
65078;DHT22;51672;51.230;-2.322;2022-07-29T15:12:33;27.60;39.40
65078;DHT22;51672;51.230;-2.322;2022-07-29T15:16:38;27.90;39.10
65078;DHT22;51672;51.230;-2.322;2022-07-29T15:21:04;28.20;39.30
65078;DHT22;51672;51.230;-2.322;2022-07-29T15:24:55;28.60;39.00
65078;DHT22;51672;51.230;-2.322;2022-07-29T15:28:57;28.90;38.20
65078;DHT22;51672;51.230;-2.322;2022-07-29T15:33:28;29.20;38.90
65078;DHT22;51672;51.230;-2.322;2022-07-29T15:37:18;29.40;38.20
65078;DHT22;51672;51.230;-2.322;2022-07-29T15:41:22;29.60;37.60
65078;DHT22;51672;51.230;-2.322;2022-07-29T15:45:13;29.90;38.50
65078;DHT22;51672;51.230;-2.322;2022-07-29T15:49:16;30.00;37.60
65078;DHT22;51672;51.230;-2.322;2022-07-29T15:53:06;30.00;37.50
65078;DHT22;51672;51.230;-2.322;2022-07-29T15:57:08;30.00;37.30
65078;DHT22;51672;51.230;-2.322;2022-07-29T16:00:59;29.90;38.30
65078;DHT22;51672;51.230;-2.322;2022-07-29T16:05:03;29.80;39.50
65078;DHT22;51672;51.230;-2.322;2022-07-29T16:09:31;29.70;39.90
65078;DHT22;51672;51.230;-2.322;2022-07-29T16:13:23;29.50;39.80
65078;DHT22;51672;51.230;-2.322;2022-07-29T16:17:23;29.20;40.40
65078;DHT22;51672;51.230;-2.322;2022-07-29T16:21:15;28.90;40.90
65078;DHT22;51672;51.230;-2.322;2022-07-29T16:25:18;28.70;42.10
65078;DHT22;51672;51.230;-2.322;2022-07-29T16:29:07;28.60;42.40
65078;DHT22;51672;51.230;-2.322;2022-07-29T16:33:10;28.40;43.20
65078;DHT22;51672;51.230;-2.322;2022-07-29T16:37:03;28.40;42.60
65078;DHT22;51672;51.230;-2.322;2022-07-29T16:41:05;28.40;44.00
65078;DHT22;51672;51.230;-2.322;2022-07-29T16:44:55;28.40;43.10
65078;DHT22;51672;51.230;-2.322;2022-07-29T16:48:57;28.30;43.00
65078;DHT22;51672;51.230;-2.322;2022-07-29T16:52:48;28.30;43.00
65078;DHT22;51672;51.230;-2.322;2022-07-29T16:56:51;28.50;43.00
65078;DHT22;51672;51.230;-2.322;2022-07-29T17:00:41;28.60;42.90
65078;DHT22;51672;51.230;-2.322;2022-07-29T17:04:45;28.60;42.90
65078;DHT22;51672;51.230;-2.322;2022-07-29T17:08:34;28.50;42.60
65078;DHT22;51672;51.230;-2.322;2022-07-29T17:12:38;28.50;42.90
65078;DHT22;51672;51.230;-2.322;2022-07-29T17:16:28;28.30;42.90
65078;DHT22;51672;51.230;-2.322;2022-07-29T17:20:28;28.30;43.50
65078;DHT22;51672;51.230;-2.322;2022-07-29T17:24:21;28.20;44.10
65078;DHT22;51672;51.230;-2.322;2022-07-29T17:28:25;28.10;44.30
65078;DHT22;51672;51.230;-2.322;2022-07-29T17:32:52;28.00;44.20
65078;DHT22;51672;51.230;-2.322;2022-07-29T17:36:42;27.90;44.60
65078;DHT22;51672;51.230;-2.322;2022-07-29T17:40:45;27.80;45.30
65078;DHT22;51672;51.230;-2.322;2022-07-29T17:44:35;27.70;44.90
65078;DHT22;51672;51.230;-2.322;2022-07-29T17:48:39;27.50;45.20
65078;DHT22;51672;51.230;-2.322;2022-07-29T17:52:30;27.40;45.40
65078;DHT22;51672;51.230;-2.322;2022-07-29T17:56:32;27.30;46.10
65078;DHT22;51672;51.230;-2.322;2022-07-29T18:00:23;27.10;45.60
65078;DHT22;51672;51.230;-2.322;2022-07-29T18:04:26;26.80;46.40
65078;DHT22;51672;51.230;-2.322;2022-07-29T18:08:17;26.50;46.30
65078;DHT22;51672;51.230;-2.322;2022-07-29T18:12:20;26.40;46.90
65078;DHT22;51672;51.230;-2.322;2022-07-29T18:16:09;26.20;46.30
65078;DHT22;51672;51.230;-2.322;2022-07-29T18:20:12;26.00;47.40
65078;DHT22;51672;51.230;-2.322;2022-07-29T18:24:02;25.80;47.00
65078;DHT22;51672;51.230;-2.322;2022-07-29T18:31:55;25.30;47.90
65078;DHT22;51672;51.230;-2.322;2022-07-29T18:35:57;25.20;48.10
65078;DHT22;51672;51.230;-2.322;2022-07-29T18:40:28;25.00;47.80
65078;DHT22;51672;51.230;-2.322;2022-07-29T18:44:19;24.90;47.60
65078;DHT22;51672;51.230;-2.322;2022-07-29T18:48:24;24.70;48.60
65078;DHT22;51672;51.230;-2.322;2022-07-29T18:57:21;24.40;48.40
65078;DHT22;51672;51.230;-2.322;2022-07-29T19:01:52;24.50;48.80
65078;DHT22;51672;51.230;-2.322;2022-07-29T19:05:43;24.50;48.50
65078;DHT22;51672;51.230;-2.322;2022-07-29T19:09:46;24.50;49.20
65078;DHT22;51672;51.230;-2.322;2022-07-29T19:18:46;24.40;49.00
65078;DHT22;51672;51.230;-2.322;2022-07-29T19:22:36;24.20;49.00
65078;DHT22;51672;51.230;-2.322;2022-07-29T19:26:39;24.10;49.60
65078;DHT22;51672;51.230;-2.322;2022-07-29T19:35:00;23.70;50.40
65078;DHT22;51672;51.230;-2.322;2022-07-29T19:44:00;23.20;49.80
65078;DHT22;51672;51.230;-2.322;2022-07-29T19:47:42;23.10;52.50
65078;DHT22;51672;51.230;-2.322;2022-07-29T19:52:14;22.90;53.90
65078;DHT22;51672;51.230;-2.322;2022-07-29T19:56:36;22.80;51.80
65078;DHT22;51672;51.230;-2.322;2022-07-29T20:00:27;22.70;55.60
65078;DHT22;51672;51.230;-2.322;2022-07-29T20:04:30;22.60;55.60
65078;DHT22;51672;51.230;-2.322;2022-07-29T20:08:12;22.60;56.20
65078;DHT22;51672;51.230;-2.322;2022-07-29T20:11:54;22.50;56.30
65078;DHT22;51672;51.230;-2.322;2022-07-29T20:15:36;22.40;56.80
65078;DHT22;51672;51.230;-2.322;2022-07-29T20:19:18;22.20;57.20
65078;DHT22;51672;51.230;-2.322;2022-07-29T20:23:00;22.10;57.90
65078;DHT22;51672;51.230;-2.322;2022-07-29T20:26:43;21.90;58.40
65078;DHT22;51672;51.230;-2.322;2022-07-29T20:30:25;21.70;58.90
65078;DHT22;51672;51.230;-2.322;2022-07-29T20:34:08;21.60;59.30
65078;DHT22;51672;51.230;-2.322;2022-07-29T20:37:50;21.50;59.70
65078;DHT22;51672;51.230;-2.322;2022-07-29T20:41:37;21.30;60.40
65078;DHT22;51672;51.230;-2.322;2022-07-29T20:45:19;21.20;60.90
65078;DHT22;51672;51.230;-2.322;2022-07-29T20:49:01;21.00;61.10
65078;DHT22;51672;51.230;-2.322;2022-07-29T20:52:44;20.90;62.10
65078;DHT22;51672;51.230;-2.322;2022-07-29T20:56:26;20.80;62.30
65078;DHT22;51672;51.230;-2.322;2022-07-29T21:00:08;20.60;63.10
65078;DHT22;51672;51.230;-2.322;2022-07-29T21:03:51;20.50;63.70
65078;DHT22;51672;51.230;-2.322;2022-07-29T21:07:32;20.30;65.30
65078;DHT22;51672;51.230;-2.322;2022-07-29T21:11:15;20.20;65.70
65078;DHT22;51672;51.230;-2.322;2022-07-29T21:14:57;20.10;66.50
65078;DHT22;51672;51.230;-2.322;2022-07-29T21:18:39;20.00;66.10
65078;DHT22;51672;51.230;-2.322;2022-07-29T21:22:21;19.90;67.00
65078;DHT22;51672;51.230;-2.322;2022-07-29T21:26:04;19.80;67.30
65078;DHT22;51672;51.230;-2.322;2022-07-29T21:29:53;19.70;67.50
65078;DHT22;51672;51.230;-2.322;2022-07-29T21:33:35;19.60;67.80
65078;DHT22;51672;51.230;-2.322;2022-07-29T21:37:17;19.60;67.50
65078;DHT22;51672;51.230;-2.322;2022-07-29T21:41:00;19.50;68.20
65078;DHT22;51672;51.230;-2.322;2022-07-29T21:44:42;19.40;67.80
65078;DHT22;51672;51.230;-2.322;2022-07-29T21:48:26;19.30;68.30
65078;DHT22;51672;51.230;-2.322;2022-07-29T21:52:08;19.20;69.30
65078;DHT22;51672;51.230;-2.322;2022-07-29T21:55:51;19.10;68.50
65078;DHT22;51672;51.230;-2.322;2022-07-29T21:59:36;19.10;69.40
65078;DHT22;51672;51.230;-2.322;2022-07-29T22:03:18;19.00;70.10
65078;DHT22;51672;51.230;-2.322;2022-07-29T22:07:01;18.80;70.50
65078;DHT22;51672;51.230;-2.322;2022-07-29T22:10:43;18.70;70.90
65078;DHT22;51672;51.230;-2.322;2022-07-29T22:14:25;18.60;71.10
65078;DHT22;51672;51.230;-2.322;2022-07-29T22:18:07;18.50;71.80
65078;DHT22;51672;51.230;-2.322;2022-07-29T22:21:49;18.40;72.50
65078;DHT22;51672;51.230;-2.322;2022-07-29T22:25:32;18.30;72.90
65078;DHT22;51672;51.230;-2.322;2022-07-29T22:29:14;18.20;73.50
65078;DHT22;51672;51.230;-2.322;2022-07-29T22:32:58;18.10;73.60
65078;DHT22;51672;51.230;-2.322;2022-07-29T22:36:40;18.10;73.70
65078;DHT22;51672;51.230;-2.322;2022-07-29T22:40:22;18.00;73.40
65078;DHT22;51672;51.230;-2.322;2022-07-29T22:44:13;18.00;74.70
65078;DHT22;51672;51.230;-2.322;2022-07-29T22:47:55;18.00;74.60
65078;DHT22;51672;51.230;-2.322;2022-07-29T22:51:40;17.90;74.00
65078;DHT22;51672;51.230;-2.322;2022-07-29T22:55:22;17.90;75.10
65078;DHT22;51672;51.230;-2.322;2022-07-29T22:59:03;17.90;75.50
65078;DHT22;51672;51.230;-2.322;2022-07-29T23:02:45;17.90;75.40
65078;DHT22;51672;51.230;-2.322;2022-07-29T23:06:28;17.80;77.10
65078;DHT22;51672;51.230;-2.322;2022-07-29T23:10:10;17.70;77.30
65078;DHT22;51672;51.230;-2.322;2022-07-29T23:13:52;17.70;77.10
65078;DHT22;51672;51.230;-2.322;2022-07-29T23:17:34;17.70;78.10
65078;DHT22;51672;51.230;-2.322;2022-07-29T23:21:17;17.70;78.50
65078;DHT22;51672;51.230;-2.322;2022-07-29T23:25:01;17.60;78.90
65078;DHT22;51672;51.230;-2.322;2022-07-29T23:28:44;17.50;79.50
65078;DHT22;51672;51.230;-2.322;2022-07-29T23:32:26;17.50;79.60
65078;DHT22;51672;51.230;-2.322;2022-07-29T23:36:08;17.50;80.80
65078;DHT22;51672;51.230;-2.322;2022-07-29T23:39:50;17.40;81.60
65078;DHT22;51672;51.230;-2.322;2022-07-29T23:43:32;17.40;81.60
65078;DHT22;51672;51.230;-2.322;2022-07-29T23:47:14;17.30;82.50
65078;DHT22;51672;51.230;-2.322;2022-07-29T23:50:56;17.30;82.80
65078;DHT22;51672;51.230;-2.322;2022-07-29T23:54:38;17.20;83.40
65078;DHT22;51672;51.230;-2.322;2022-07-29T23:58:20;17.10;84.20
